Time;durP1;ratioP1;P1;durP2;ratioP2;P2;SDS_P1;SDS_P2;PMS_P1;PMS_P2;Temp;Humidity;BMP_temperature;BMP_pressure;BME280_temperature;BME280_humidity;BME280_pressure;Samples;Min_cycle;Max_cycle;Signal;HPM_P1;HPM_P2
2022/08/18 00:00:13;;;;;;;12.23;8.18;;;;;;;23.04;66.94;99921.11;1701295;83;21118;-47
2022/08/18 00:02:41;;;;;;;12.37;8.15;;;;;;;23.02;66.98;99927.22;1693963;82;21565;-48
2022/08/18 00:05:11;;;;;;;12.65;8.45;;;;;;;23.02;66.96;99923.19;1708150;82;21066;-48
2022/08/18 00:07:38;;;;;;;14.13;8.28;;;;;;;23.01;67.04;99924.22;1712366;82;21110;-48
2022/08/18 00:10:06;;;;;;;12.03;8.33;;;;;;;22.98;67.09;99920.13;1691014;83;21158;-49
2022/08/18 00:12:37;;;;;;;12.60;8.45;;;;;;;22.96;67.18;99920.02;1684467;84;21138;-48
2022/08/18 00:15:08;;;;;;;12.68;8.55;;;;;;;22.90;67.29;99921.71;1715909;83;21044;-48
2022/08/18 00:17:36;;;;;;;9.15;7.00;;;;;;;22.84;67.51;99919.06;1713090;82;21118;-48
2022/08/18 00:20:08;;;;;;;11.40;7.47;;;;;;;22.82;67.72;99922.77;1709361;82;21050;-48
2022/08/18 00:22:35;;;;;;;13.20;7.50;;;;;;;22.88;67.49;99926.48;1688003;84;21796;-49
2022/08/18 00:25:01;;;;;;;13.72;9.13;;;;;;;22.87;67.53;99926.16;1677335;84;21658;-48
2022/08/18 00:27:29;;;;;;;12.10;8.08;;;;;;;22.87;67.56;99919.98;1700814;84;21036;-48
2022/08/18 00:29:59;;;;;;;10.38;7.67;;;;;;;22.85;67.58;99916.67;1701765;84;21567;-48
2022/08/18 00:32:33;;;;;;;14.50;8.83;;;;;;;22.80;67.53;99918.15;1700431;84;21720;-49
2022/08/18 00:35:20;;;;;;;15.15;8.75;;;;;;;22.75;67.72;99915.81;1688564;82;21915;-48
2022/08/18 00:37:48;;;;;;;11.68;7.37;;;;;;;22.74;67.80;99921.68;1695268;84;21032;-47
2022/08/18 00:40:19;;;;;;;13.40;8.33;;;;;;;22.75;67.92;99917.97;1691272;82;21065;-48
2022/08/18 00:42:52;;;;;;;12.23;8.78;;;;;;;22.74;67.91;99912.29;1696241;84;21083;-47
2022/08/18 00:45:24;;;;;;;14.05;8.28;;;;;;;22.70;68.03;99917.80;1657917;84;21070;-48
2022/08/18 00:47:51;;;;;;;17.50;8.13;;;;;;;22.63;68.05;99916.48;1703556;82;21522;-48
2022/08/18 00:50:27;;;;;;;12.95;7.65;;;;;;;22.63;68.03;99917.83;1692305;83;21062;-48
2022/08/18 00:53:08;;;;;;;14.38;8.53;;;;;;;22.63;68.04;99921.84;1675356;83;22305;-48
2022/08/18 00:55:34;;;;;;;11.65;7.80;;;;;;;22.64;67.97;99919.98;1680946;84;21325;-48
2022/08/18 00:58:08;;;;;;;12.70;7.90;;;;;;;22.65;67.94;99918.95;1708761;82;21607;-48
2022/08/18 01:00:35;;;;;;;10.48;8.65;;;;;;;22.60;67.95;99919.59;1696680;83;21527;-48
2022/08/18 01:03:05;;;;;;;11.53;7.53;;;;;;;22.57;67.90;99919.19;1690032;82;21519;-48
2022/08/18 01:05:42;;;;;;;12.60;7.12;;;;;;;22.52;67.92;99914.98;1701311;84;21550;-47
2022/08/18 01:08:10;;;;;;;16.30;7.90;;;;;;;22.50;67.94;99911.17;1683449;84;21077;-48
2022/08/18 01:10:38;;;;;;;9.00;7.58;;;;;;;22.48;68.00;99908.39;1682276;84;21072;-47
2022/08/18 01:13:05;;;;;;;12.47;7.97;;;;;;;22.44;68.10;99911.52;1684735;82;21147;-48
2022/08/18 01:15:31;;;;;;;11.97;7.67;;;;;;;22.41;68.19;99913.80;1701807;84;21063;-48
2022/08/18 01:23:35;;;;;;;13.78;8.03;;;;;;;22.34;68.49;99918.34;1680218;84;21514;-48
2022/08/18 01:26:05;;;;;;;9.30;7.67;;;;;;;22.37;68.42;99922.77;1674313;84;21206;-47
2022/08/18 01:28:39;;;;;;;16.57;8.18;;;;;;;22.35;68.45;99924.84;1665276;85;21499;-48
2022/08/18 01:31:06;;;;;;;15.40;7.95;;;;;;;22.30;68.64;99926.52;1673598;85;21063;-48
2022/08/18 01:33:36;;;;;;;11.75;7.67;;;;;;;22.27;68.68;99925.03;1695939;82;21060;-48
2022/08/18 01:36:16;;;;;;;10.32;7.97;;;;;;;22.28;68.56;99926.73;1700132;83;21570;-48
2022/08/18 01:38:46;;;;;;;14.00;8.15;;;;;;;22.28;68.55;99932.58;1710395;82;21158;-47
2022/08/18 01:41:12;;;;;;;14.95;8.20;;;;;;;22.22;68.74;99927.00;1705020;82;21073;-47
2022/08/18 01:43:39;;;;;;;14.68;8.55;;;;;;;22.14;68.86;99930.42;1705449;82;21088;-46
2022/08/18 01:46:06;;;;;;;9.95;7.58;;;;;;;22.13;69.21;99934.16;1722401;82;20999;-47
2022/08/18 01:48:34;;;;;;;15.28;7.95;;;;;;;22.13;69.04;99931.48;1745118;81;21538;-46
2022/08/18 01:51:04;;;;;;;15.45;8.43;;;;;;;22.13;69.14;99934.97;1746965;82;21114;-46
2022/08/18 01:53:31;;;;;;;14.83;8.25;;;;;;;22.13;69.09;99935.50;1740407;81;20999;-47
2022/08/18 01:55:58;;;;;;;17.00;8.70;;;;;;;22.11;69.01;99942.90;1750514;80;21043;-46
2022/08/18 01:58:26;;;;;;;11.38;7.17;;;;;;;22.06;69.06;99948.38;1741691;81;21106;-46
2022/08/18 02:00:56;;;;;;;9.78;7.78;;;;;;;22.02;69.16;99944.98;1711630;83;21117;-46
2022/08/18 02:03:25;;;;;;;10.68;7.75;;;;;;;22.01;69.11;99946.84;1754380;80;21092;-47
2022/08/18 02:05:56;;;;;;;10.88;8.20;;;;;;;22.01;69.07;99946.84;1746371;80;21708;-46
2022/08/18 02:08:23;;;;;;;14.53;8.38;;;;;;;21.96;69.11;99949.33;1741087;81;21054;-47
2022/08/18 02:10:50;;;;;;;14.40;7.25;;;;;;;21.89;69.18;99942.64;1750692;81;20992;-48
2022/08/18 02:13:17;;;;;;;10.40;7.25;;;;;;;21.86;69.17;99941.71;1748550;80;21067;-47
2022/08/18 02:15:45;;;;;;;11.80;8.05;;;;;;;21.86;69.13;99940.90;1744591;81;21223;-48
2022/08/18 02:18:15;;;;;;;10.85;8.00;;;;;;;21.83;69.18;99933.27;1742387;81;21526;-48
2022/08/18 02:20:42;;;;;;;12.85;8.45;;;;;;;21.78;69.34;99940.58;1748746;81;21464;-47
2022/08/18 02:23:10;;;;;;;16.17;8.05;;;;;;;21.71;69.41;99936.56;1740785;81;21519;-47
2022/08/18 02:25:37;;;;;;;11.43;7.58;;;;;;;21.68;69.65;99945.53;1750900;81;21361;-48
2022/08/18 02:28:04;;;;;;;11.93;7.65;;;;;;;21.67;69.70;99944.72;1742555;80;21961;-47
2022/08/18 02:30:32;;;;;;;11.43;7.80;;;;;;;21.67;69.84;99938.03;1746342;81;21038;-47
2022/08/18 02:32:58;;;;;;;11.73;8.15;;;;;;;21.68;69.77;99930.28;1651820;83;21085;-47
2022/08/18 02:35:25;;;;;;;16.75;8.68;;;;;;;21.64;69.63;99928.25;1740705;81;21054;-47
2022/08/18 02:37:51;;;;;;;11.95;7.60;;;;;;;21.59;69.59;99929.38;1745746;80;21011;-47
2022/08/18 02:40:18;;;;;;;13.55;7.85;;;;;;;21.57;69.68;99927.41;1738598;82;22150;-47
2022/08/18 02:42:46;;;;;;;10.55;7.58;;;;;;;21.58;69.70;99932.55;1744953;81;21036;-47
2022/08/18 02:45:12;;;;;;;12.70;8.28;;;;;;;21.57;69.59;99932.27;1741422;81;21055;-47
2022/08/18 02:47:42;;;;;;;13.45;8.85;;;;;;;21.57;69.69;99942.97;1730292;80;20996;-47
2022/08/18 02:50:09;;;;;;;12.50;7.70;;;;;;;21.53;69.68;99943.06;1740886;80;21070;-47
2022/08/18 02:52:36;;;;;;;12.70;8.33;;;;;;;21.51;69.68;99943.78;1736327;81;21203;-46
2022/08/18 02:55:04;;;;;;;12.13;7.75;;;;;;;21.50;69.53;99946.14;1739537;82;21098;-47
2022/08/18 02:57:30;;;;;;;13.05;8.38;;;;;;;21.47;69.57;99942.56;1736874;81;21071;-47
2022/08/18 02:59:57;;;;;;;11.55;7.22;;;;;;;21.46;69.66;99939.53;1732308;81;21026;-46
2022/08/18 03:02:23;;;;;;;11.95;8.10;;;;;;;21.44;69.45;99943.75;1738046;81;21106;-47
2022/08/18 03:04:50;;;;;;;10.80;7.28;;;;;;;21.42;69.46;99947.15;1703429;83;21148;-48
2022/08/18 03:07:17;;;;;;;10.75;7.40;;;;;;;21.40;69.56;99947.03;1703911;83;21094;-46
2022/08/18 03:09:43;;;;;;;12.35;7.42;;;;;;;21.40;69.57;99941.67;1735748;80;21088;-46
2022/08/18 03:12:10;;;;;;;10.93;7.25;;;;;;;21.41;69.45;99945.48;1700438;82;21074;-47
2022/08/18 03:14:38;;;;;;;10.88;7.62;;;;;;;21.40;69.43;99945.20;1704734;84;21078;-47
2022/08/18 03:17:07;;;;;;;12.40;8.03;;;;;;;21.34;69.42;99946.00;1706909;82;21196;-46
2022/08/18 03:19:33;;;;;;;15.58;7.30;;;;;;;21.27;69.33;99945.19;1700133;82;21047;-47
2022/08/18 03:22:00;;;;;;;13.68;7.95;;;;;;;21.24;69.49;99947.73;1742587;80;21094;-47
2022/08/18 03:24:27;;;;;;;11.63;7.67;;;;;;;21.24;69.41;99954.42;1726842;81;21659;-47
2022/08/18 03:26:55;;;;;;;14.40;7.30;;;;;;;21.25;69.43;99959.25;1735233;82;21556;-46
2022/08/18 03:29:22;;;;;;;9.90;7.67;;;;;;;21.22;69.46;99957.83;1741852;80;22278;-47
2022/08/18 03:31:49;;;;;;;15.88;7.58;;;;;;;21.22;69.63;99963.17;1737980;82;21522;-46
2022/08/18 03:34:18;;;;;;;12.30;7.53;;;;;;;21.24;69.43;99966.98;1736020;80;21597;-47
2022/08/18 03:36:45;;;;;;;13.98;8.03;;;;;;;21.27;69.18;99968.73;1741567;82;21566;-47
2022/08/18 03:39:11;;;;;;;11.40;7.55;;;;;;;21.26;69.15;99972.43;1740429;81;21079;-47
2022/08/18 03:41:41;;;;;;;11.25;7.30;;;;;;;21.23;69.33;99976.03;1740024;81;21132;-47
2022/08/18 03:44:10;;;;;;;13.55;7.85;;;;;;;21.21;69.39;99986.94;1730297;81;21095;-47
2022/08/18 03:46:36;;;;;;;21.57;7.33;;;;;;;21.24;69.22;99993.22;1741959;82;21067;-48
2022/08/18 03:49:03;;;;;;;9.33;7.37;;;;;;;21.27;69.13;99991.48;1738650;81;21007;-46
2022/08/18 03:51:31;;;;;;;11.63;8.10;;;;;;;21.28;69.15;99989.62;1742528;80;21037;-46
2022/08/18 03:54:00;;;;;;;11.93;8.08;;;;;;;21.28;69.22;99985.61;1740446;80;22649;-48
2022/08/18 03:56:32;;;;;;;11.85;8.38;;;;;;;21.27;69.20;99982.12;1699665;84;21031;-46
2022/08/18 03:59:03;;;;;;;10.70;7.53;;;;;;;21.25;69.25;99985.52;1697481;83;21130;-46
2022/08/18 04:01:32;;;;;;;11.93;7.28;;;;;;;21.23;69.14;99991.59;1706489;83;21025;-46
2022/08/18 04:04:02;;;;;;;11.57;8.20;;;;;;;21.26;69.15;99993.84;1698983;82;21541;-47
2022/08/18 04:06:37;;;;;;;12.35;7.75;;;;;;;21.28;68.83;99995.82;1707065;83;21119;-47
2022/08/18 04:09:05;;;;;;;12.28;8.35;;;;;;;21.29;68.74;99987.27;1674923;83;21106;-46
2022/08/18 04:11:32;;;;;;;12.45;8.20;;;;;;;21.26;68.75;99987.15;1706569;82;21111;-46
2022/08/18 04:13:59;;;;;;;11.38;7.30;;;;;;;21.24;68.51;99989.73;1701430;83;21110;-47
2022/08/18 04:16:28;;;;;;;9.73;7.30;;;;;;;21.26;68.42;99994.36;1702335;84;21026;-46
2022/08/18 04:19:03;;;;;;;9.30;7.22;;;;;;;21.26;68.56;99983.66;1700160;83;21121;-46
2022/08/18 04:21:26;;;;;;;11.90;7.17;;;;;;;21.25;68.63;99986.01;1705470;84;22257;-47
2022/08/18 04:23:53;;;;;;;10.18;7.40;;;;;;;21.24;68.71;99988.39;1698051;82;21141;-46
2022/08/18 04:26:20;;;;;;;9.50;6.83;;;;;;;21.26;68.54;99982.31;1674759;83;21125;-46
2022/08/18 04:28:47;;;;;;;10.75;6.75;;;;;;;21.31;68.44;99969.97;1681087;83;21142;-46
2022/08/18 04:31:14;;;;;;;11.30;7.00;;;;;;;21.36;68.36;99971.23;1689573;83;21154;-47
2022/08/18 04:33:40;;;;;;;11.50;6.87;;;;;;;21.42;68.44;99976.59;1704196;83;21071;-47
2022/08/18 04:36:11;;;;;;;11.43;7.17;;;;;;;21.47;68.00;99977.36;1686954;84;21141;-47
2022/08/18 04:38:38;;;;;;;11.60;7.33;;;;;;;21.48;67.78;99985.67;1691792;83;21095;-47
2022/08/18 04:41:05;;;;;;;10.63;6.62;;;;;;;21.49;67.17;99980.13;1691426;83;21048;-46
2022/08/18 04:43:32;;;;;;;11.18;6.83;;;;;;;21.50;67.04;99982.27;1697281;83;21202;-47
2022/08/18 04:46:00;;;;;;;11.93;7.05;;;;;;;21.57;66.69;99988.97;1684925;84;21099;-47
2022/08/18 04:48:32;;;;;;;10.28;7.10;;;;;;;21.62;66.27;99987.84;1705376;83;21055;-47
2022/08/18 04:51:11;;;;;;;14.13;6.62;;;;;;;21.64;66.25;99987.15;1707310;83;21028;-47
2022/08/18 04:53:44;;;;;;;10.93;7.00;;;;;;;21.68;65.76;99996.41;1704150;83;21055;-47
2022/08/18 04:56:25;;;;;;;10.18;6.78;;;;;;;21.69;65.41;99993.52;1703338;82;21064;-47
2022/08/18 04:58:58;;;;;;;11.30;6.47;;;;;;;21.72;65.13;99992.30;1693072;82;21071;-47
2022/08/18 05:01:28;;;;;;;12.10;6.10;;;;;;;21.76;64.91;99992.72;1706126;84;21138;-47
2022/08/18 05:03:56;;;;;;;8.58;5.83;;;;;;;21.82;64.47;99986.52;1701491;83;21094;-47
2022/08/18 05:06:25;;;;;;;11.97;7.00;;;;;;;21.86;64.27;99987.23;1685814;82;21145;-46
2022/08/18 05:08:58;;;;;;;9.98;6.87;;;;;;;21.88;63.54;99989.72;1692227;83;21609;-47
2022/08/18 05:11:32;;;;;;;10.60;7.10;;;;;;;21.86;63.52;100000.63;1699368;83;21024;-47
2022/08/18 05:13:58;;;;;;;10.93;6.70;;;;;;;21.84;63.41;99997.87;1713614;82;21530;-47
2022/08/18 05:16:25;;;;;;;10.75;5.78;;;;;;;21.83;63.47;100002.38;1680694;82;21535;-47
2022/08/18 05:18:52;;;;;;;10.60;6.12;;;;;;;21.88;63.36;100003.11;1679955;83;21625;-47
2022/08/18 05:21:20;;;;;;;9.88;6.87;;;;;;;21.94;63.26;99999.61;1677351;85;22141;-46
2022/08/18 05:23:48;;;;;;;10.98;7.00;;;;;;;22.00;63.20;100000.63;1699895;82;21087;-47
2022/08/18 05:26:15;;;;;;;8.80;6.67;;;;;;;22.00;63.34;100005.46;1689118;83;21082;-47
2022/08/18 05:28:43;;;;;;;12.13;6.80;;;;;;;22.05;63.24;100011.02;1678962;83;21123;-46
2022/08/18 05:31:16;;;;;;;9.88;7.10;;;;;;;22.10;63.18;100002.37;1677833;83;21566;-46
2022/08/18 05:33:43;;;;;;;10.50;5.97;;;;;;;22.11;62.92;100003.18;1678789;83;21158;-47
2022/08/18 05:36:50;;;;;;;12.10;5.72;;;;;;;22.13;62.65;99995.26;1699141;83;21087;-46
2022/08/18 05:39:37;;;;;;;11.43;7.55;;;;;;;22.21;62.44;99999.06;1697092;83;21546;-46
2022/08/18 05:42:18;;;;;;;9.65;6.85;;;;;;;22.26;62.23;99997.92;1659269;82;21091;-49
2022/08/18 05:44:50;;;;;;;10.82;7.08;;;;;;;22.28;62.04;99995.06;1684033;83;21035;-46
2022/08/18 05:47:27;;;;;;;10.58;6.15;;;;;;;22.31;62.01;99992.47;1677822;85;21243;-46
2022/08/18 05:49:56;;;;;;;9.05;6.42;;;;;;;22.35;61.80;100003.91;1703780;83;21063;-46
2022/08/18 05:53:02;;;;;;;10.80;6.53;;;;;;;22.38;61.75;100002.16;1705914;83;21074;-47
2022/08/18 05:58:30;;;;;;;8.57;6.00;;;;;;;22.49;61.47;99999.33;1699924;83;21086;-47
2022/08/18 06:00:59;;;;;;;10.98;6.12;;;;;;;22.59;60.58;99998.40;1682929;83;21130;-47
2022/08/18 06:03:35;;;;;;;7.78;5.20;;;;;;;22.62;60.37;99993.11;1685398;83;21098;-47
2022/08/18 06:06:07;;;;;;;10.38;6.30;;;;;;;22.65;60.28;99992.70;1705132;83;21024;-48
2022/08/18 06:08:42;;;;;;;10.15;6.08;;;;;;;22.69;60.53;99996.59;1705375;83;21094;-47
2022/08/18 06:11:09;;;;;;;17.10;7.23;;;;;;;22.70;60.22;100003.61;1705688;84;21024;-47
2022/08/18 06:13:39;;;;;;;9.38;6.03;;;;;;;22.72;60.10;100003.40;1694138;82;21200;-47
2022/08/18 06:16:34;;;;;;;13.22;6.78;;;;;;;22.72;60.24;100004.21;1689032;83;21086;-47
2022/08/18 06:19:39;;;;;;;13.22;6.28;;;;;;;22.76;60.40;100003.27;1744106;81;21020;-47
2022/08/18 06:22:48;;;;;;;9.95;6.70;;;;;;;22.87;60.29;100006.64;1750686;80;21551;-47
2022/08/18 06:25:26;;;;;;;9.15;6.58;;;;;;;22.94;59.47;100002.58;1749551;81;21105;-47
2022/08/18 06:28:14;;;;;;;9.25;5.22;;;;;;;22.96;59.48;100005.38;1748046;81;21131;-47
2022/08/18 06:30:49;;;;;;;9.35;5.90;;;;;;;22.97;58.82;100003.50;1727142;81;21110;-46
2022/08/18 06:33:55;;;;;;;9.33;6.20;;;;;;;22.97;58.65;100002.16;1741726;80;21070;-47
2022/08/18 06:36:45;;;;;;;9.90;6.40;;;;;;;22.99;59.01;100004.11;1685967;82;21113;-47
2022/08/18 06:39:43;;;;;;;11.95;6.72;;;;;;;23.01;58.50;100000.69;1733524;80;21050;-48
2022/08/18 06:42:10;;;;;;;15.40;6.15;;;;;;;22.99;58.32;99998.73;1702849;82;21197;-48
2022/08/18 06:44:49;;;;;;;14.28;6.65;;;;;;;22.98;58.88;100010.00;1718845;82;21049;-48
2022/08/18 06:47:43;;;;;;;7.78;5.33;;;;;;;23.03;59.30;100009.34;1734488;80;21110;-48
2022/08/18 06:50:26;;;;;;;9.88;6.62;;;;;;;23.13;59.52;100003.55;1724360;81;21652;-47
2022/08/18 06:52:56;;;;;;;15.10;6.72;;;;;;;23.27;58.74;100000.29;1734214;81;21129;-48
2022/08/18 06:55:42;;;;;;;9.38;6.25;;;;;;;23.38;58.98;99998.23;1737296;81;21093;-48
2022/08/18 06:58:21;;;;;;;9.50;6.35;;;;;;;23.42;58.04;100003.49;1734876;80;21011;-48
2022/08/18 07:00:55;;;;;;;10.98;6.55;;;;;;;23.44;58.11;100001.41;1734123;80;21062;-48
2022/08/18 07:03:38;;;;;;;13.60;7.03;;;;;;;23.44;58.49;100004.09;1722146;80;21024;-48
2022/08/18 07:06:12;;;;;;;10.10;6.80;;;;;;;23.46;58.26;100000.66;1701008;84;21097;-48
2022/08/18 07:08:43;;;;;;;11.65;7.30;;;;;;;23.51;58.24;100004.05;1698866;83;21148;-48
2022/08/18 07:11:25;;;;;;;8.93;6.47;;;;;;;23.56;58.34;100011.74;1707080;82;21537;-48
2022/08/18 07:13:57;;;;;;;11.85;6.75;;;;;;;23.66;58.48;100011.27;1701694;83;21062;-46
2022/08/18 07:16:30;;;;;;;12.90;6.65;;;;;;;23.79;58.54;100004.98;1703802;83;21503;-48
2022/08/18 07:19:14;;;;;;;10.28;6.20;;;;;;;23.91;58.22;99997.88;1698360;82;21062;-47
2022/08/18 07:21:41;;;;;;;9.63;7.08;;;;;;;23.99;57.55;100004.00;1654002;83;21265;-47
2022/08/18 07:24:29;;;;;;;16.12;6.30;;;;;;;24.02;56.77;99996.84;1704887;83;21114;-47
2022/08/18 07:27:16;;;;;;;9.70;6.20;;;;;;;24.03;56.45;99998.50;1709294;82;21036;-48
2022/08/18 07:30:14;;;;;;;10.43;6.87;;;;;;;24.04;56.75;100002.81;1703047;83;21095;-47
2022/08/18 07:32:57;;;;;;;13.28;7.22;;;;;;;24.05;56.33;100002.59;1700417;83;21593;-46
2022/08/18 07:35:31;;;;;;;8.98;6.50;;;;;;;24.07;56.76;100001.88;1699500;82;21327;-47
2022/08/18 07:38:03;;;;;;;14.40;6.67;;;;;;;24.08;56.38;100012.09;1706228;83;21135;-47
2022/08/18 07:40:47;;;;;;;11.28;7.33;;;;;;;24.09;56.95;100008.34;1704316;83;21612;-47
2022/08/18 07:43:40;;;;;;;12.88;7.83;;;;;;;24.13;56.62;100009.57;1701575;83;21008;-48
2022/08/18 07:46:12;;;;;;;11.93;6.80;;;;;;;24.20;55.35;100007.63;1705038;83;21054;-48
2022/08/18 07:48:39;;;;;;;13.35;7.40;;;;;;;24.26;55.57;100008.09;1705737;83;21141;-47
2022/08/18 07:51:22;;;;;;;10.90;7.80;;;;;;;24.32;55.23;100010.94;1703179;82;21130;-47
2022/08/18 07:54:27;;;;;;;11.05;7.87;;;;;;;24.36;55.36;100005.41;1701268;83;21126;-47
2022/08/18 07:57:18;;;;;;;11.93;7.62;;;;;;;24.40;54.90;100006.09;1696037;83;21058;-47
2022/08/18 08:00:19;;;;;;;9.28;6.22;;;;;;;24.44;54.38;100010.48;1663073;84;21073;-48
2022/08/18 08:03:10;;;;;;;10.80;5.55;;;;;;;24.46;54.10;100007.89;1700729;84;21112;-46
2022/08/18 08:05:54;;;;;;;8.45;6.22;;;;;;;24.51;53.63;100004.54;1701472;82;21090;-47
2022/08/18 08:08:29;;;;;;;13.62;6.87;;;;;;;24.57;54.00;100005.00;1695689;83;21077;-47
2022/08/18 08:11:31;;;;;;;8.58;5.90;;;;;;;24.61;53.49;100011.59;1696756;84;21071;-47
2022/08/18 08:14:21;;;;;;;9.53;5.97;;;;;;;24.71;53.15;99999.47;1701372;83;21106;-47
2022/08/18 08:17:16;;;;;;;13.38;5.78;;;;;;;24.79;53.09;100000.51;1680523;83;21146;-48
2022/08/18 08:20:13;;;;;;;8.63;6.00;;;;;;;24.85;52.45;99994.23;1673530;83;20998;-47
2022/08/18 08:23:13;;;;;;;13.35;6.87;;;;;;;24.91;52.33;99983.89;1701778;82;21051;-47
2022/08/18 08:25:59;;;;;;;10.28;5.53;;;;;;;24.97;51.96;99982.17;1702659;82;21595;-47
2022/08/18 08:28:43;;;;;;;12.98;6.17;;;;;;;25.06;51.21;99988.87;1704442;84;22322;-47
2022/08/18 08:31:41;;;;;;;8.78;5.75;;;;;;;25.12;51.16;99993.89;1695256;82;21077;-47
2022/08/18 08:34:34;;;;;;;11.05;6.20;;;;;;;25.18;51.85;99993.80;1671327;83;21500;-47
2022/08/18 08:37:04;;;;;;;10.28;5.72;;;;;;;25.27;50.99;99992.13;1677043;84;21093;-47
2022/08/18 08:39:56;;;;;;;12.73;6.17;;;;;;;25.34;51.07;100001.77;1692078;83;21586;-46
2022/08/18 08:43:01;;;;;;;10.88;5.53;;;;;;;25.41;51.43;99997.62;1691375;83;21127;-47
2022/08/18 08:45:34;;;;;;;8.98;4.90;;;;;;;25.50;50.59;100002.16;1679619;83;21239;-46
2022/08/18 08:48:17;;;;;;;10.13;4.90;;;;;;;25.54;49.77;100013.59;1694953;83;21062;-47
2022/08/18 08:50:48;;;;;;;11.38;5.62;;;;;;;25.57;50.22;100013.64;1693769;83;21077;-47
2022/08/18 08:53:23;;;;;;;10.45;5.67;;;;;;;25.63;50.75;100018.11;1691341;84;21064;-47
2022/08/18 08:55:57;;;;;;;18.40;6.17;;;;;;;25.72;50.83;100014.05;1691508;83;21035;-46
2022/08/18 08:58:29;;;;;;;12.98;5.83;;;;;;;25.80;50.97;100017.45;1696488;83;21379;-46
2022/08/18 09:00:56;;;;;;;11.12;6.00;;;;;;;25.88;50.30;100021.15;1678690;83;21119;-46
2022/08/18 09:03:35;;;;;;;9.88;5.87;;;;;;;25.92;50.82;100012.88;1689112;83;21095;-47
2022/08/18 09:06:36;;;;;;;10.03;6.12;;;;;;;25.95;50.42;100017.30;1690290;83;21538;-47
2022/08/18 09:09:23;;;;;;;9.65;5.95;;;;;;;26.01;50.38;100020.12;1691111;83;21186;-46
2022/08/18 09:12:36;;;;;;;12.18;5.90;;;;;;;26.05;50.41;100014.03;1695489;83;21604;-47
2022/08/18 09:15:17;;;;;;;10.00;5.58;;;;;;;26.08;49.41;100010.88;1692873;83;21071;-48
2022/08/18 09:17:56;;;;;;;8.50;5.78;;;;;;;26.08;48.80;100014.91;1665955;85;21066;-47
2022/08/18 09:20:57;;;;;;;14.87;6.17;;;;;;;26.09;49.28;100016.57;1675648;83;21110;-47
2022/08/18 09:23:34;;;;;;;8.25;5.50;;;;;;;26.14;49.36;100017.19;1695235;84;21129;-47
2022/08/18 09:26:23;;;;;;;10.95;5.70;;;;;;;26.22;49.14;100011.45;1703532;83;21403;-47
2022/08/18 09:28:57;;;;;;;11.33;5.08;;;;;;;26.25;49.13;99998.84;1694912;82;21069;-47
2022/08/18 09:31:25;;;;;;;9.55;5.45;;;;;;;26.31;49.24;100002.50;1690429;84;21107;-46
2022/08/18 09:34:03;;;;;;;9.38;5.55;;;;;;;26.37;49.15;100005.58;1698835;82;21511;-47
2022/08/18 09:36:57;;;;;;;7.95;5.03;;;;;;;26.40;48.70;100005.11;1693867;83;21055;-47
2022/08/18 09:42:44;;;;;;;8.63;5.15;;;;;;;26.46;48.43;100000.63;1615238;83;21142;-47
2022/08/18 09:45:31;;;;;;;8.60;5.40;;;;;;;26.48;48.38;99998.00;1690600;82;21063;-46
2022/08/18 09:48:11;;;;;;;9.48;5.47;;;;;;;26.50;48.54;99998.58;1701318;83;21699;-47
2022/08/18 09:50:54;;;;;;;9.03;5.28;;;;;;;26.55;48.62;100011.36;1690863;83;21086;-47
2022/08/18 09:53:51;;;;;;;9.93;5.10;;;;;;;26.59;49.22;100007.12;1704575;82;21147;-50
2022/08/18 09:56:50;;;;;;;8.48;4.75;;;;;;;26.67;48.93;100017.58;1700229;83;21126;-47
2022/08/18 10:03:01;;;;;;;8.75;5.40;;;;;;;26.94;48.19;100004.89;1788505;78;23457;-46
2022/08/18 10:05:28;;;;;;;9.93;4.95;;;;;;;27.02;47.50;100006.40;1753081;79;21176;-47
2022/08/18 10:08:09;;;;;;;11.03;5.97;;;;;;;27.03;47.27;100004.81;1757656;79;21143;-47
2022/08/18 10:10:57;;;;;;;9.28;4.40;;;;;;;27.04;47.78;100011.02;1761997;80;21066;-48
2022/08/18 10:13:29;;;;;;;12.75;4.97;;;;;;;27.08;46.93;100001.36;1774353;79;21067;-47
2022/08/18 10:16:22;;;;;;;11.63;5.35;;;;;;;27.13;46.68;100004.16;1766974;80;21636;-48
2022/08/18 10:19:17;;;;;;;10.38;4.53;;;;;;;27.14;46.63;99999.59;1759974;79;21557;-46
2022/08/18 10:22:00;;;;;;;11.18;5.05;;;;;;;27.18;47.44;100008.84;1762239;80;21147;-50
2022/08/18 10:24:52;;;;;;;7.60;4.70;;;;;;;27.21;47.37;100001.07;1764155;80;24022;-46
2022/08/18 10:27:45;;;;;;;11.97;5.35;;;;;;;27.25;47.48;100004.10;1763249;80;21030;-47
2022/08/18 10:30:35;;;;;;;8.33;4.92;;;;;;;27.30;47.39;100002.06;1760296;79;21534;-47
2022/08/18 10:33:07;;;;;;;7.92;4.55;;;;;;;27.33;46.57;100006.98;1736386;80;21104;-47
2022/08/18 10:35:42;;;;;;;8.35;5.45;;;;;;;27.37;47.03;100005.42;1750682;81;21126;-47
2022/08/18 10:38:18;;;;;;;;;;;;;;;27.40;46.55;100006.30;1753391;79;21081;-52
2022/08/18 10:40:56;;;;;;;14.78;5.35;;;;;;;27.46;46.17;99998.58;1760967;79;20499;-47
2022/08/18 10:43:40;;;;;;;9.98;5.05;;;;;;;27.50;46.56;100001.61;1759191;79;21104;-48
2022/08/18 10:46:20;;;;;;;8.18;4.90;;;;;;;27.55;46.37;100003.04;1770240;80;21665;-48
2022/08/18 10:49:12;;;;;;;10.58;5.30;;;;;;;27.63;45.74;100002.64;1764882;80;21140;-47
2022/08/18 10:52:00;;;;;;;8.93;4.65;;;;;;;27.69;46.33;100002.17;1756968;80;21489;-47
2022/08/18 10:54:57;;;;;;;9.25;5.45;;;;;;;27.75;46.42;100007.96;1757989;79;21049;-47
2022/08/18 10:57:56;;;;;;;17.02;5.30;;;;;;;27.80;45.81;100004.80;1760898;80;21234;-47
2022/08/18 11:00:22;;;;;;;8.50;5.10;;;;;;;27.84;46.28;100010.56;1765469;80;21054;-47
2022/08/18 11:03:09;;;;;;;8.80;4.95;;;;;;;27.87;45.74;100008.69;1750570;80;21169;-46
2022/08/18 11:05:36;;;;;;;7.97;4.60;;;;;;;27.91;45.67;100003.09;1758643;80;21545;-47
2022/08/18 11:08:07;;;;;;;7.50;5.03;;;;;;;27.93;45.99;100007.74;1758409;80;21021;-47
2022/08/18 11:10:47;;;;;;;14.28;5.40;;;;;;;28.01;46.19;100009.73;1760597;79;21048;-49
2022/08/18 11:13:46;;;;;;;10.55;5.70;;;;;;;28.07;46.37;100012.27;1767408;80;21504;-47
2022/08/18 11:16:54;;;;;;;9.48;5.25;;;;;;;28.16;45.94;100011.34;1765597;80;21151;-47
2022/08/18 11:19:21;;;;;;;10.65;5.47;;;;;;;28.26;46.39;100010.64;1761079;80;21557;-47
2022/08/18 11:21:49;;;;;;;11.63;5.17;;;;;;;28.35;45.42;100005.91;1769518;80;21541;-47
2022/08/18 11:24:26;;;;;;;10.38;5.37;;;;;;;28.43;45.96;100001.12;1759122;80;21073;-46
2022/08/18 11:27:02;;;;;;;8.45;4.72;;;;;;;28.49;45.28;99997.42;1766930;79;21110;-47
2022/08/18 11:29:39;;;;;;;11.53;5.00;;;;;;;28.57;45.48;99998.38;1759209;80;21604;-48
2022/08/18 11:32:11;;;;;;;;;;;;;;;28.66;45.08;99994.14;1780140;80;21091;-47
2022/08/18 11:34:43;;;;;;;8.08;4.87;;;;;;;28.72;44.99;99994.50;1772338;80;20162;-48
2022/08/18 11:37:26;;;;;;;8.25;4.87;;;;;;;28.78;44.78;99990.50;1783876;79;21062;-48
2022/08/18 11:39:56;;;;;;;9.45;4.80;;;;;;;28.84;44.18;99984.08;1747145;79;21042;-47
2022/08/18 11:42:33;;;;;;;8.78;5.12;;;;;;;28.87;44.12;99983.58;1774933;79;21821;-47
2022/08/18 11:45:18;;;;;;;6.90;4.53;;;;;;;28.87;43.05;99991.16;1778370;80;21533;-47
2022/08/18 11:48:03;;;;;;;;;;;;;;;28.86;43.24;99994.11;1781401;80;21551;-47
2022/08/18 11:50:31;;;;;;;8.95;5.28;;;;;;;28.89;43.60;99992.26;1775767;80;20205;-47
2022/08/18 11:53:24;;;;;;;15.03;4.83;;;;;;;28.97;43.62;99991.00;1778613;80;21086;-48
2022/08/18 11:56:17;;;;;;;11.43;5.47;;;;;;;29.04;43.31;99984.84;1780241;80;21849;-48
2022/08/18 11:58:52;;;;;;;12.93;4.58;;;;;;;29.07;43.34;99981.08;1743150;80;21286;-48
2022/08/18 12:01:48;;;;;;;8.05;5.22;;;;;;;29.17;42.97;99980.40;1746647;79;21010;-48
2022/08/18 12:04:41;;;;;;;10.13;4.60;;;;;;;29.25;42.89;99988.58;1769540;80;21061;-48
2022/08/18 12:07:13;;;;;;;8.78;4.60;;;;;;;29.30;42.64;99982.41;1749797;80;21089;-47
2022/08/18 12:10:11;;;;;;;10.28;4.20;;;;;;;29.36;42.95;99984.91;1758089;80;21969;-47
2022/08/18 12:12:49;;;;;;;7.53;4.53;;;;;;;29.41;42.56;99980.07;1770175;80;21103;-47
2022/08/18 12:15:27;;;;;;;9.48;4.70;;;;;;;29.50;42.55;99971.73;1761836;79;21074;-48
2022/08/18 12:17:53;;;;;;;11.88;5.05;;;;;;;29.58;42.49;99971.80;1760911;80;21428;-47
2022/08/18 12:20:21;;;;;;;9.00;4.70;;;;;;;29.68;41.91;99973.78;1759345;80;21494;-47